Terminal Aerodrome Forecast
Issued by NWS Omaha/Valley, NE

Home | Current Version | Previous Version | Text Only | Print | Product List | Glossary On
Versions: 1 2 3 4 5 6 7 8 9 10 11 12 13 14 15 16 17 18 19 20 21 22 23 24 25 26 27 28
000
FTUS43 KOAX 272331
TAFOMA
TAF
KOMA 272331Z 2800/2824 16017G25KT P6SM SCT120
     FM280600 16016G24KT P6SM VCTS OVC140CB
      TEMPO 2807/2810 VRB25G40KT 2SM TSRA OVC025CB
     FM281400 20011KT P6SM BKN120
     FM281800 24013KT P6SM SCT080=

USA.gov is the U.S. government's official web portal to all federal, state and local government web resources and services.